Time;durP1;ratioP1;P1;durP2;ratioP2;P2;SDS_P1;SDS_P2;PMS_P1;PMS_P2;Temp;Humidity;BMP_temperature;BMP_pressure;BME280_temperature;BME280_humidity;BME280_pressure;Samples;Min_cycle;Max_cycle;Signal;HPM_P1;HPM_P2
2021/12/17 00:00:26;;;;;;;1.90;1.60;;;16.40;68.40;;;;;;5071753;28;20135;-73
2021/12/17 00:03:17;;;;;;;1.92;1.70;;;16.50;68.40;;;;;;5073399;28;20131;-73
2021/12/17 00:05:52;;;;;;;1.90;1.60;;;16.20;68.50;;;;;;5074528;28;20086;-73
2021/12/17 00:08:19;;;;;;;1.80;1.60;;;15.90;68.30;;;;;;5074367;28;20044;-73
2021/12/17 00:10:46;;;;;;;1.70;1.50;;;16.30;68.30;;;;;;5073470;28;20131;-73
2021/12/17 00:13:13;;;;;;;2.05;1.58;;;16.50;68.60;;;;;;5073429;28;20048;-73
2021/12/17 00:15:40;;;;;;;1.92;1.60;;;16.30;68.60;;;;;;5071465;28;20120;-73
2021/12/17 00:18:15;;;;;;;2.33;1.70;;;15.70;68.00;;;;;;5072750;28;20055;-73
2021/12/17 00:51:17;;;;;;;1.77;1.50;;;16.40;68.60;;;;;;5070726;28;20052;-73
2021/12/17 00:53:43;;;;;;;2.05;1.63;;;16.40;68.70;;;;;;5072497;28;20049;-73
2021/12/17 00:56:10;;;;;;;1.95;1.63;;;15.80;68.50;;;;;;5071637;28;20568;-72
2021/12/17 00:58:37;;;;;;;2.10;1.58;;;16.20;68.10;;;;;;5072520;28;20135;-73
2021/12/17 01:01:03;;;;;;;1.95;1.40;;;16.20;68.50;;;;;;5072554;28;20060;-73
2021/12/17 01:03:30;;;;;;;1.80;1.40;;;16.40;68.80;;;;;;5072278;28;20581;-73
2021/12/17 01:05:58;;;;;;;2.38;1.50;;;16.40;66.30;;;;;;5072022;28;20136;-73
2021/12/17 01:08:25;;;;;;;2.05;1.50;;;16.10;68.50;;;;;;5053437;28;20053;-73
2021/12/17 01:10:54;;;;;;;1.50;1.30;;;16.30;68.70;;;;;;5052374;28;20144;-73
2021/12/17 01:13:21;;;;;;;1.90;1.50;;;16.30;64.70;;;;;;5051977;28;20045;-73
2021/12/17 01:15:48;;;;;;;1.92;1.50;;;15.80;68.50;;;;;;5051996;28;20144;-73
2021/12/17 01:18:17;;;;;;;1.77;1.40;;;15.90;68.50;;;;;;5052016;28;20159;-73
2021/12/17 01:21:06;;;;;;;2.10;1.58;;;16.20;68.80;;;;;;5052202;28;20057;-73
2021/12/17 01:24:01;;;;;;;1.77;1.58;;;16.20;68.50;;;;;;5054200;28;20048;-72
2021/12/17 01:42:52;;;;;;;1.85;1.63;;;15.80;68.30;;;;;;5053019;28;20053;-73
2021/12/17 01:45:19;;;;;;;1.65;1.40;;;16.20;68.80;;;;;;5051620;28;20053;-73
2021/12/17 01:47:47;;;;;;;1.88;1.50;;;;;;;;;;5051538;28;20079;-73
2021/12/17 01:55:50;;;;;;;1.95;1.70;;;15.90;68.70;;;;;;5051196;28;20044;-73
2021/12/17 02:01:04;;;;;;;1.90;1.48;;;;;;;;;;5051458;28;20053;-71
2021/12/17 02:03:31;;;;;;;2.17;1.75;;;15.80;68.60;;;;;;5051092;28;20049;-73
2021/12/17 02:05:59;;;;;;;1.30;1.15;;;15.60;68.20;;;;;;5051038;28;20048;-73
2021/12/17 02:08:25;;;;;;;1.70;1.50;;;15.40;68.20;;;;;;5051082;28;20417;-73
2021/12/17 02:19:42;;;;;;;1.75;1.27;;;16.90;69.20;;;;;;4981397;28;20499;-72
2021/12/17 02:33:06;;;;;;;1.13;1.02;;;16.00;68.30;;;;;;5069267;28;20131;-73
2021/12/17 02:35:39;;;;;;;1.25;1.10;;;16.20;66.90;;;;;;5070720;28;20143;-73
2021/12/17 02:38:08;;;;;;;3.35;1.17;;;16.00;68.40;;;;;;5070891;28;20083;-73
2021/12/17 02:46:03;;;;;;;1.08;0.98;;;;;;;;;;5070703;28;20052;-73
2021/12/17 02:48:30;;;;;;;1.30;1.10;;;16.20;68.40;;;;;;5069032;28;20523;-73
2021/12/17 02:50:58;;;;;;;1.23;1.10;;;16.20;68.40;;;;;;5071844;28;20051;-73
2021/12/17 02:53:27;;;;;;;1.20;1.10;;;16.10;62.40;;;;;;5070516;28;20541;-74
2021/12/17 02:55:55;;;;;;;1.27;1.08;;;15.40;68.00;;;;;;5070261;28;20446;-73
2021/12/17 02:58:23;;;;;;;1.15;1.00;;;15.70;67.80;;;;;;5070570;28;20478;-73
2021/12/17 03:00:50;;;;;;;1.25;1.10;;;;;;;;;;5070470;28;20075;-73
2021/12/17 03:03:17;;;;;;;1.20;1.10;;;16.20;68.30;;;;;;5071604;28;20044;-73
2021/12/17 03:05:44;;;;;;;1.15;1.05;;;;;;;;;;5068716;28;20131;-72
2021/12/17 03:08:14;;;;;;;1.33;1.10;;;16.90;68.40;;;;;;5070578;28;20110;-73
2021/12/17 03:10:43;;;;;;;1.02;0.93;;;16.30;68.30;;;;;;5070349;28;20049;-73
2021/12/17 03:13:11;;;;;;;1.42;1.00;;;;;;;;;;5070569;28;20503;-72
2021/12/17 03:15:42;;;;;;;1.65;1.10;;;16.40;68.10;;;;;;5070181;28;20059;-73
2021/12/17 03:18:48;;;;;;;1.10;1.00;;;16.10;68.10;;;;;;5070838;28;20074;-73
2021/12/17 03:23:55;;;;;;;1.13;0.93;;;16.30;68.10;;;;;;5072229;28;20045;-73
2021/12/17 03:26:24;;;;;;;1.77;1.00;;;16.00;68.10;;;;;;5073978;28;20131;-74
2021/12/17 03:28:51;;;;;;;0.85;0.85;;;16.20;66.10;;;;;;5074249;28;20123;-73
2021/12/17 03:31:19;;;;;;;1.27;1.02;;;;;;;;;;5073996;28;20050;-73
2021/12/17 03:33:49;;;;;;;1.00;0.90;;;16.40;68.10;;;;;;5072600;28;20381;-74
2021/12/17 03:36:16;;;;;;;0.98;0.88;;;16.10;68.20;;;;;;5073741;28;20048;-73
2021/12/17 03:38:44;;;;;;;1.10;0.98;;;16.10;67.90;;;;;;5074167;28;20143;-73
2021/12/17 03:41:17;;;;;;;1.25;1.00;;;16.20;64.60;;;;;;5074008;28;20148;-73
2021/12/17 03:43:45;;;;;;;1.30;1.00;;;16.10;68.00;;;;;;5073869;28;20124;-73
2021/12/17 03:46:12;;;;;;;1.30;1.05;;;16.20;68.20;;;;;;5073781;28;20160;-73
2021/12/17 03:48:40;;;;;;;0.93;0.90;;;15.60;67.60;;;;;;5060848;28;20136;-72
2021/12/17 03:51:11;;;;;;;1.00;0.85;;;15.80;67.70;;;;;;5070749;28;20494;-73
2021/12/17 03:53:38;;;;;;;1.10;1.00;;;16.10;68.20;;;;;;5073904;28;20060;-73
2021/12/17 03:56:06;;;;;;;0.93;0.82;;;16.10;63.40;;;;;;5073565;28;20139;-73
2021/12/17 03:58:32;;;;;;;1.10;1.00;;;16.60;68.20;;;;;;5073264;28;20058;-73
2021/12/17 04:01:00;;;;;;;1.02;0.90;;;16.10;68.20;;;;;;5073708;28;20135;-73
2021/12/17 04:03:27;;;;;;;1.27;1.00;;;15.50;67.60;;;;;;5073488;28;20057;-73
2021/12/17 04:05:54;;;;;;;0.85;0.82;;;15.90;67.90;;;;;;5071827;28;20049;-73
2021/12/17 04:08:20;;;;;;;1.05;0.90;;;16.30;65.80;;;;;;5073054;28;20131;-73
2021/12/17 04:10:50;;;;;;;0.95;0.80;;;;;;;;;;5073537;28;20139;-73
2021/12/17 04:13:28;;;;;;;1.00;0.90;;;;;;;;;;5073582;28;20075;-72
2021/12/17 04:15:59;;;;;;;1.00;0.90;;;;;;;;;;5073175;28;20060;-73
2021/12/17 04:18:27;;;;;;;1.10;0.90;;;16.00;67.70;;;;;;5073335;28;20070;-73
2021/12/17 04:20:54;;;;;;;1.92;1.20;;;15.50;64.20;;;;;;5071431;28;20135;-73
2021/12/17 04:23:21;;;;;;;1.40;1.00;;;15.90;66.60;;;;;;5073179;28;20548;-74
2021/12/17 04:25:48;;;;;;;1.27;0.93;;;16.10;66.30;;;;;;5073083;28;20075;-73
2021/12/17 04:28:15;;;;;;;1.10;0.88;;;16.30;68.00;;;;;;5073222;28;20056;-73
2021/12/17 04:30:42;;;;;;;1.20;0.90;;;15.50;67.50;;;;;;5071920;28;20570;-73
2021/12/17 04:33:09;;;;;;;1.20;0.90;;;16.20;67.70;;;;;;5072866;28;20521;-73
2021/12/17 04:35:39;;;;;;;1.15;0.80;;;16.20;62.10;;;;;;5072923;28;20080;-73
2021/12/17 04:38:07;;;;;;;1.35;1.00;;;16.30;67.90;;;;;;5065736;28;20076;-73
2021/12/17 04:40:35;;;;;;;1.08;0.90;;;16.30;62.80;;;;;;5052978;28;20063;-73
2021/12/17 04:43:13;;;;;;;0.98;0.90;;;16.20;67.60;;;;;;5052853;28;20044;-73
2021/12/17 04:45:41;;;;;;;0.88;0.80;;;16.40;67.90;;;;;;5052332;28;20103;-73
2021/12/17 04:59:08;;;;;;;0.90;0.90;;;16.40;67.70;;;;;;5072439;28;20596;-73
2021/12/17 05:01:35;;;;;;;1.40;1.10;;;15.70;67.30;;;;;;5072598;28;20079;-72
2021/12/17 05:04:01;;;;;;;1.80;1.00;;;16.30;64.60;;;;;;5072201;28;20131;-73
2021/12/17 05:06:31;;;;;;;1.95;1.00;;;17.20;68.10;;;;;;5072051;28;20725;-73
2021/12/17 05:09:05;;;;;;;0.85;0.80;;;16.20;67.20;;;;;;5072211;28;20480;-73
2021/12/17 05:18:13;;;;;;;0.65;0.65;;;16.40;67.70;;;;;;5070512;28;20051;-74
2021/12/17 05:19:55;;;;;;;0.93;0.80;;;16.30;67.50;;;;;;5072952;28;20056;-73
2021/12/17 05:22:24;;;;;;;1.17;0.90;;;16.30;66.30;;;;;;5071972;28;20056;-74
2021/12/17 05:24:51;;;;;;;1.10;0.90;;;16.90;67.50;;;;;;5071867;28;20049;-72
2021/12/17 05:27:19;;;;;;;0.70;0.70;;;16.40;67.10;;;;;;5072944;28;20127;-73
2021/12/17 05:29:45;;;;;;;1.13;0.80;;;16.40;67.50;;;;;;5070251;28;20056;-73
2021/12/17 05:32:12;;;;;;;1.02;0.80;;;16.60;67.50;;;;;;5072035;28;20063;-73
2021/12/17 05:34:39;;;;;;;0.73;0.70;;;16.40;65.10;;;;;;5071788;28;20135;-73
2021/12/17 05:37:06;;;;;;;1.17;0.88;;;;;;;;;;5072905;28;20132;-73
2021/12/17 05:39:34;;;;;;;0.85;0.80;;;16.00;66.90;;;;;;5072459;28;20060;-73
2021/12/17 05:42:01;;;;;;;0.95;0.82;;;15.70;66.70;;;;;;5071419;28;20573;-73
2021/12/17 05:44:28;;;;;;;0.98;0.80;;;16.50;62.20;;;;;;5071508;28;20045;-73
2021/12/17 05:46:55;;;;;;;1.60;0.95;;;16.50;67.10;;;;;;5058364;28;20095;-73
2021/12/17 05:49:23;;;;;;;1.17;0.88;;;16.40;67.30;;;;;;5051738;28;20055;-72
2021/12/17 05:51:49;;;;;;;0.70;0.70;;;16.40;67.30;;;;;;5051818;28;20132;-73
2021/12/17 05:54:17;;;;;;;1.02;0.88;;;16.60;66.40;;;;;;5055933;28;20048;-73
2021/12/17 05:56:45;;;;;;;0.82;0.80;;;15.80;66.90;;;;;;5059759;28;20172;-74
2021/12/17 05:59:11;;;;;;;0.90;0.80;;;16.60;67.40;;;;;;5060986;28;20465;-74
2021/12/17 06:01:38;;;;;;;1.20;0.90;;;16.20;67.20;;;;;;5061419;28;20052;-73
2021/12/17 06:04:05;;;;;;;1.02;0.82;;;16.00;66.80;;;;;;5061164;28;20576;-73
2021/12/17 06:06:33;;;;;;;1.55;1.08;;;16.40;67.20;;;;;;5061565;28;20548;-72
2021/12/17 06:09:01;;;;;;;1.25;0.90;;;16.00;66.70;;;;;;5061286;28;20148;-74
2021/12/17 06:11:28;;;;;;;0.93;0.77;;;16.60;67.00;;;;;;5059412;28;20045;-74
2021/12/17 06:13:56;;;;;;;1.23;0.90;;;16.50;64.70;;;;;;5060991;28;20079;-73
2021/12/17 06:16:23;;;;;;;1.08;0.80;;;16.70;67.00;;;;;;5061383;28;20549;-71
2021/12/17 06:18:49;;;;;;;1.02;0.90;;;16.60;66.90;;;;;;5062308;28;20135;-73
2021/12/17 06:21:19;;;;;;;1.15;0.90;;;16.40;66.80;;;;;;5061762;28;20135;-73
2021/12/17 06:23:45;;;;;;;0.95;0.85;;;16.30;67.00;;;;;;5060724;28;20044;-74
2021/12/17 06:26:12;;;;;;;0.70;0.70;;;16.00;66.70;;;;;;5061013;28;20144;-74
2021/12/17 06:28:39;;;;;;;0.82;0.80;;;17.50;67.40;;;;;;5059458;28;20146;-73
2021/12/17 06:31:07;;;;;;;0.85;0.85;;;16.30;66.70;;;;;;5061023;28;20467;-74
2021/12/17 06:33:34;;;;;;;1.20;0.90;;;16.80;66.80;;;;;;5058539;28;20612;-73
2021/12/17 06:36:01;;;;;;;1.30;0.90;;;16.80;66.80;;;;;;5060668;28;20051;-73
2021/12/17 06:38:31;;;;;;;1.42;0.88;;;16.00;66.40;;;;;;5062548;28;20151;-73
2021/12/17 06:41:02;;;;;;;1.35;0.90;;;16.90;64.60;;;;;;5058093;28;20084;-73
2021/12/17 06:43:35;;;;;;;1.02;0.80;;;17.00;67.10;;;;;;5060135;28;20045;-74
2021/12/17 06:46:15;;;;;;;0.80;0.80;;;16.80;65.00;;;;;;5059063;28;20091;-73
2021/12/17 06:48:43;;;;;;;0.90;0.80;;;17.60;67.30;;;;;;5061134;28;20051;-73
2021/12/17 06:59:44;;;;;;;0.98;0.80;;;17.20;67.10;;;;;;5058231;28;20056;-73
2021/12/17 07:10:37;;;;;;;0.88;0.77;;;15.90;66.00;;;;;;5061104;28;20044;-73
2021/12/17 07:21:27;;;;;;;0.70;0.70;;;16.10;66.00;;;;;;5052900;28;20135;-73
2021/12/17 07:24:35;;;;;;;1.02;0.80;;;17.90;67.10;;;;;;5050668;28;20045;-73
2021/12/17 07:35:26;;;;;;;1.23;0.93;;;17.60;66.90;;;;;;5049549;28;20037;-72
2021/12/17 07:40:38;;;;;;;0.95;0.80;;;17.70;67.00;;;;;;5061040;28;20052;-73
2021/12/17 07:43:11;;;;;;;1.88;0.80;;;17.30;61.00;;;;;;5059508;28;20056;-73
2021/12/17 07:45:38;;;;;;;4.72;1.10;;;17.10;66.50;;;;;;5058659;28;20382;-73
2021/12/17 07:48:06;;;;;;;1.48;1.10;;;17.50;65.00;;;;;;5059681;28;20460;-73
2021/12/17 07:50:33;;;;;;;1.48;0.95;;;;;;;;;;5061106;28;20492;-72
2021/12/17 07:53:01;;;;;;;1.30;1.00;;;17.40;66.50;;;;;;5060412;28;20070;-73
2021/12/17 07:55:28;;;;;;;1.73;0.90;;;17.10;66.20;;;;;;5058139;28;20136;-73
2021/12/17 07:57:55;;;;;;;1.27;0.85;;;16.50;66.10;;;;;;5066249;28;20059;-73
2021/12/17 08:00:21;;;;;;;1.17;0.80;;;17.50;64.30;;;;;;5070340;28;20055;-73
2021/12/17 08:02:48;;;;;;;1.08;0.95;;;17.70;66.40;;;;;;5070317;28;20427;-73
2021/12/17 08:05:16;;;;;;;1.00;0.80;;;17.30;66.30;;;;;;5071605;28;20054;-73
2021/12/17 08:07:43;;;;;;;1.58;0.88;;;17.10;66.10;;;;;;5073575;28;20049;-72
2021/12/17 08:10:11;;;;;;;1.75;0.90;;;17.20;61.80;;;;;;5060209;28;20140;-73
2021/12/17 08:12:38;;;;;;;1.50;1.00;;;;;;;;;;5057452;28;20119;-72
2021/12/17 08:15:09;;;;;;;2.50;0.98;;;17.40;66.40;;;;;;5053079;28;20044;-71
2021/12/17 08:18:07;;;;;;;1.63;1.20;;;17.10;60.90;;;;;;5054513;28;20158;-73
2021/12/17 08:26:12;;;;;;;1.10;1.00;;;17.00;66.40;;;;;;5035940;28;20509;-73
2021/12/17 08:31:25;;;;;;;1.23;0.75;;;17.00;66.30;;;;;;5035874;28;20045;-73
2021/12/17 08:33:52;;;;;;;1.35;0.90;;;17.40;66.50;;;;;;5054375;28;20076;-72
2021/12/17 08:36:19;;;;;;;1.30;0.90;;;17.20;66.20;;;;;;5061155;28;20084;-73
2021/12/17 08:38:46;;;;;;;0.93;0.82;;;17.90;66.40;;;;;;5053766;28;20517;-72
2021/12/17 08:41:15;;;;;;;1.88;1.02;;;17.90;66.70;;;;;;5052779;28;20080;-73
2021/12/17 08:43:41;;;;;;;0.90;0.88;;;17.30;65.80;;;;;;5062263;28;20120;-73
2021/12/17 08:46:08;;;;;;;1.23;0.90;;;17.00;66.20;;;;;;5036201;28;20070;-71
2021/12/17 08:48:35;;;;;;;1.55;1.00;;;17.40;66.30;;;;;;5053650;28;20144;-72
2021/12/17 08:51:02;;;;;;;1.20;1.00;;;17.40;66.50;;;;;;5062922;28;20127;-74
2021/12/17 08:53:29;;;;;;;1.75;0.90;;;16.70;61.50;;;;;;5067588;28;20152;-73
2021/12/17 08:55:55;;;;;;;1.55;0.85;;;17.50;66.40;;;;;;5051530;28;20051;-74
2021/12/17 08:58:24;;;;;;;1.15;0.93;;;17.20;60.80;;;;;;5052794;28;20471;-72
2021/12/17 09:00:50;;;;;;;1.08;0.90;;;17.90;66.40;;;;;;5052793;28;20143;-74
2021/12/17 09:03:17;;;;;;;2.35;1.02;;;16.20;63.80;;;;;;5052516;28;20049;-74
2021/12/17 09:05:45;;;;;;;0.93;0.82;;;18.00;66.70;;;;;;5051891;28;20055;-74
2021/12/17 09:08:12;;;;;;;1.27;0.70;;;17.30;66.00;;;;;;5054028;28;20052;-74
2021/12/17 09:10:39;;;;;;;2.60;0.98;;;17.30;66.10;;;;;;5052581;28;20136;-74
2021/12/17 09:13:06;;;;;;;1.10;0.95;;;15.10;64.60;;;;;;5052555;28;20064;-74
2021/12/17 09:15:34;;;;;;;1.27;0.98;;;17.20;66.30;;;;;;5051981;28;20135;-74
2021/12/17 09:18:01;;;;;;;0.95;0.82;;;16.40;65.60;;;;;;5051846;28;20060;-74
2021/12/17 09:20:27;;;;;;;1.67;0.90;;;16.80;66.10;;;;;;5052323;28;20133;-74
2021/12/17 09:22:54;;;;;;;1.27;1.08;;;17.40;66.00;;;;;;5052362;28;20478;-74
2021/12/17 09:25:21;;;;;;;1.95;1.00;;;17.50;66.40;;;;;;5053128;28;20049;-74
2021/12/17 09:27:47;;;;;;;1.50;1.10;;;17.40;66.50;;;;;;5051592;28;20131;-74
2021/12/17 09:30:16;;;;;;;1.38;0.90;;;16.30;65.50;;;;;;5057828;28;20545;-73
2021/12/17 09:32:45;;;;;;;0.77;0.77;;;17.30;66.20;;;;;;5057179;28;20131;-72
2021/12/17 09:35:13;;;;;;;2.30;1.10;;;16.30;65.70;;;;;;5066346;28;20136;-72
2021/12/17 09:37:40;;;;;;;1.05;0.88;;;;;;;;;;5055341;28;20065;-72
2021/12/17 09:40:08;;;;;;;1.13;1.00;;;16.30;65.80;;;;;;5060682;28;20132;-72
2021/12/17 09:42:35;;;;;;;1.20;1.00;;;17.50;66.20;;;;;;5060154;28;20052;-72
2021/12/17 09:45:02;;;;;;;1.23;1.00;;;16.30;65.80;;;;;;5062821;28;20128;-72
2021/12/17 09:47:29;;;;;;;1.02;0.85;;;17.10;66.00;;;;;;5059701;28;20136;-72
2021/12/17 09:49:58;;;;;;;1.40;1.15;;;17.20;66.40;;;;;;5062381;28;20120;-69
2021/12/17 09:52:25;;;;;;;1.48;1.02;;;16.40;65.80;;;;;;5060724;28;20131;-72
2021/12/17 09:54:51;;;;;;;1.75;1.13;;;16.30;65.80;;;;;;5062200;28;20127;-72
2021/12/17 09:57:20;;;;;;;2.05;1.20;;;17.40;62.20;;;;;;5061794;28;20442;-72
2021/12/17 09:59:47;;;;;;;1.60;1.10;;;16.20;65.70;;;;;;5059537;28;20547;-72
2021/12/17 10:02:14;;;;;;;4.03;1.60;;;17.30;66.30;;;;;;5061144;28;20044;-72
2021/12/17 10:04:42;;;;;;;3.42;1.30;;;17.40;66.50;;;;;;5039015;28;20124;-72
2021/12/17 10:07:21;;;;;;;5.07;1.80;;;17.30;66.50;;;;;;5052270;28;20497;-72
2021/12/17 10:09:49;;;;;;;11.40;2.70;;;17.30;67.20;;;;;;5051266;28;20049;-72
2021/12/17 10:12:16;;;;;;;6.93;2.08;;;17.10;67.50;;;;;;5051035;28;20144;-73
2021/12/17 10:14:43;;;;;;;3.58;1.63;;;17.50;65.60;;;;;;5054569;28;20045;-72
2021/12/17 10:17:10;;;;;;;4.50;1.80;;;17.30;67.60;;;;;;5056465;28;20115;-72
2021/12/17 10:19:48;;;;;;;6.00;1.80;;;17.20;63.80;;;;;;5056538;28;20078;-72
2021/12/17 10:22:16;;;;;;;4.78;1.80;;;17.40;67.70;;;;;;5062337;28;20481;-72
2021/12/17 10:24:45;;;;;;;5.50;1.83;;;17.20;62.40;;;;;;5062802;28;20048;-72
2021/12/17 10:27:20;;;;;;;5.53;1.75;;;17.70;68.00;;;;;;5050970;28;20140;-73
2021/12/17 10:29:47;;;;;;;4.65;2.00;;;;;;;;;;5051123;28;20049;-73
2021/12/17 10:32:17;;;;;;;5.13;1.90;;;17.10;67.80;;;;;;5054275;28;20055;-73
2021/12/17 10:35:16;;;;;;;4.80;1.88;;;16.20;67.30;;;;;;5063092;28;20127;-73
2021/12/17 10:37:44;;;;;;;4.22;1.85;;;17.20;62.60;;;;;;5041643;28;20055;-72
2021/12/17 10:40:23;;;;;;;4.75;1.60;;;17.20;68.20;;;;;;5061644;28;20048;-73
2021/12/17 10:42:58;;;;;;;5.18;2.17;;;16.50;67.60;;;;;;5060809;28;20599;-73
2021/12/17 10:45:27;;;;;;;6.68;2.10;;;16.30;67.70;;;;;;5070770;28;20127;-73
2021/12/17 10:48:28;;;;;;;3.60;1.90;;;17.20;64.40;;;;;;5070139;28;20131;-73
2021/12/17 10:51:18;;;;;;;3.70;1.77;;;17.80;68.60;;;;;;5061847;28;20052;-72
2021/12/17 10:53:46;;;;;;;4.65;1.73;;;16.30;67.80;;;;;;5060005;28;20388;-72
2021/12/17 10:56:17;;;;;;;4.53;1.67;;;17.10;68.20;;;;;;5059166;28;20056;-73
2021/12/17 10:58:57;;;;;;;3.20;1.70;;;17.20;62.70;;;;;;5061165;28;20056;-72
2021/12/17 11:01:40;;;;;;;3.20;1.70;;;17.20;68.00;;;;;;5058055;28;20135;-72
2021/12/17 11:04:13;;;;;;;5.43;1.70;;;16.30;67.50;;;;;;5056626;28;20082;-71
2021/12/17 11:06:48;;;;;;;4.65;1.70;;;17.20;62.60;;;;;;5058061;28;20128;-73
2021/12/17 11:09:35;;;;;;;3.63;1.63;;;17.30;68.20;;;;;;5055968;28;20059;-70
2021/12/17 11:12:07;;;;;;;2.95;1.80;;;16.50;67.80;;;;;;5060070;28;20056;-76
2021/12/17 11:14:34;;;;;;;3.03;1.58;;;17.20;68.10;;;;;;5057274;28;20040;-70
2021/12/17 11:17:00;;;;;;;5.22;1.85;;;17.00;68.20;;;;;;5062216;28;20417;-71
2021/12/17 11:19:27;;;;;;;2.90;1.23;;;17.30;68.00;;;;;;5055835;28;20130;-71
2021/12/17 11:21:55;;;;;;;3.45;1.50;;;16.90;67.70;;;;;;5058076;28;20132;-73
2021/12/17 11:24:24;;;;;;;3.88;1.65;;;;;;;;;;5057217;28;20061;-74
2021/12/17 11:26:51;;;;;;;2.83;1.40;;;17.30;68.10;;;;;;5059740;28;20132;-72
2021/12/17 11:29:19;;;;;;;3.63;2.17;;;17.30;68.30;;;;;;5060673;28;20139;-70
2021/12/17 11:31:45;;;;;;;2.67;1.60;;;17.40;68.00;;;;;;5059419;28;20476;-70
2021/12/17 11:34:12;;;;;;;1.77;1.20;;;17.00;68.10;;;;;;5056197;28;20131;-70
2021/12/17 11:36:39;;;;;;;2.88;1.50;;;17.10;64.50;;;;;;5058395;28;20054;-70
2021/12/17 11:39:09;;;;;;;2.90;1.70;;;16.80;67.60;;;;;;5057704;28;20141;-70
2021/12/17 11:41:44;;;;;;;2.30;1.50;;;16.60;67.80;;;;;;5061488;28;20127;-70
2021/12/17 11:44:12;;;;;;;2.95;1.52;;;16.30;67.60;;;;;;5060280;28;20409;-73
2021/12/17 11:46:40;;;;;;;2.45;1.40;;;16.50;63.70;;;;;;5064752;28;20170;-70
2021/12/17 11:49:13;;;;;;;3.03;1.40;;;16.80;63.90;;;;;;5062085;28;20048;-70
2021/12/17 11:51:40;;;;;;;2.13;1.38;;;17.10;67.90;;;;;;5061713;28;20148;-71
2021/12/17 11:54:08;;;;;;;2.47;1.27;;;16.10;67.50;;;;;;5064261;28;20102;-70
2021/12/17 11:56:41;;;;;;;2.45;1.40;;;17.10;62.50;;;;;;5063328;28;20450;-73
2021/12/17 11:59:08;;;;;;;3.08;1.90;;;17.60;64.90;;;;;;5058462;28;20060;-71
2021/12/17 12:01:57;;;;;;;2.42;1.30;;;17.60;67.90;;;;;;5062298;28;20049;-70
2021/12/17 12:04:38;;;;;;;2.10;1.23;;;17.00;67.90;;;;;;5069717;28;20052;-70
2021/12/17 12:07:06;;;;;;;2.08;1.25;;;17.10;67.90;;;;;;5059291;28;20478;-72
2021/12/17 12:10:08;;;;;;;1.95;1.17;;;17.20;67.90;;;;;;5062903;28;20140;-71
2021/12/17 12:13:00;;;;;;;1.83;1.10;;;16.50;67.40;;;;;;4986678;28;20046;-69
2021/12/17 12:15:31;;;;;;;3.08;1.63;;;16.80;67.70;;;;;;5057308;28;20405;-69
2021/12/17 12:18:13;;;;;;;2.67;1.83;;;17.20;68.00;;;;;;5057973;28;20053;-69
2021/12/17 12:20:59;;;;;;;3.13;1.80;;;17.10;62.30;;;;;;5059303;28;20064;-72
2021/12/17 12:23:47;;;;;;;2.15;1.70;;;17.70;67.90;;;;;;5057624;28;20076;-72
2021/12/17 12:26:28;;;;;;;2.78;1.70;;;17.20;62.30;;;;;;5046370;28;20055;-71
2021/12/17 12:29:05;;;;;;;4.05;1.98;;;16.90;67.40;;;;;;5061338;28;20055;-69
2021/12/17 12:31:59;;;;;;;3.42;1.60;;;17.20;67.70;;;;;;5060093;28;20057;-69
2021/12/17 12:34:48;;;;;;;2.92;1.55;;;16.70;67.50;;;;;;5060845;28;20067;-73
2021/12/17 12:37:33;;;;;;;2.20;1.45;;;17.30;67.80;;;;;;5050883;28;20136;-71
2021/12/17 12:40:21;;;;;;;2.03;1.50;;;16.80;67.40;;;;;;5061208;28;20457;-71
2021/12/17 12:42:55;;;;;;;2.25;1.50;;;17.40;67.80;;;;;;5065182;28;20410;-72
2021/12/17 12:45:23;;;;;;;2.00;1.53;;;16.50;67.00;;;;;;5059785;28;20119;-70
2021/12/17 12:47:58;;;;;;;1.77;1.48;;;17.40;67.50;;;;;;5059710;28;20057;-73
2021/12/17 12:50:27;;;;;;;2.17;1.50;;;17.20;62.10;;;;;;5063584;28;20053;-71
2021/12/17 12:52:55;;;;;;;2.50;1.48;;;16.50;67.20;;;;;;5059311;28;20095;-70
2021/12/17 12:55:24;;;;;;;3.55;1.27;;;17.30;67.70;;;;;;5064748;28;20079;-70
2021/12/17 12:57:52;;;;;;;1.42;1.20;;;17.30;67.50;;;;;;5062192;28;20048;-70
2021/12/17 13:00:21;;;;;;;1.95;1.50;;;17.30;62.30;;;;;;5062563;28;20060;-68
2021/12/17 13:02:50;;;;;;;3.58;1.40;;;17.30;67.70;;;;;;5068916;28;20157;-72
2021/12/17 13:05:16;;;;;;;3.10;1.20;;;17.20;67.70;;;;;;5072599;28;20058;-71
2021/12/17 13:07:47;;;;;;;1.40;1.20;;;17.30;64.50;;;;;;5061895;28;20159;-71
2021/12/17 13:10:15;;;;;;;3.20;1.10;;;17.40;67.70;;;;;;5085554;28;20088;-71
2021/12/17 13:12:47;;;;;;;2.42;1.20;;;17.50;67.70;;;;;;5052635;28;20501;-70
2021/12/17 13:15:30;;;;;;;1.40;1.10;;;16.50;66.80;;;;;;5052516;28;20148;-70
2021/12/17 13:20:55;;;;;;;2.55;1.10;;;18.10;67.90;;;;;;5086097;28;20135;-73
2021/12/17 13:23:24;;;;;;;2.28;1.10;;;17.50;67.60;;;;;;5052476;28;20555;-70
2021/12/17 13:26:08;;;;;;;1.45;1.00;;;17.20;67.50;;;;;;5053372;28;20056;-74
2021/12/17 13:28:52;;;;;;;1.75;1.10;;;17.50;68.10;;;;;;5052148;28;20135;-74
2021/12/17 13:31:33;;;;;;;2.42;1.17;;;16.20;66.90;;;;;;5052131;28;20143;-74
2021/12/17 13:34:00;;;;;;;1.30;1.10;;;16.30;67.10;;;;;;5052274;28;20140;-73
2021/12/17 13:36:26;;;;;;;1.30;1.10;;;17.40;67.40;;;;;;5051876;28;20128;-74
2021/12/17 13:38:57;;;;;;;2.65;1.08;;;17.30;67.40;;;;;;5051941;28;20139;-71
2021/12/17 13:41:37;;;;;;;1.23;1.10;;;17.20;63.60;;;;;;5052876;28;20166;-71
2021/12/17 13:44:04;;;;;;;1.20;1.10;;;17.30;62.10;;;;;;5052050;28;20056;-71
2021/12/17 13:46:31;;;;;;;1.17;1.05;;;17.40;67.60;;;;;;5051505;28;20140;-71
2021/12/17 13:48:58;;;;;;;1.77;1.10;;;16.80;66.90;;;;;;5051659;28;20052;-71
2021/12/17 13:51:25;;;;;;;1.52;1.10;;;17.40;67.00;;;;;;5052826;28;20131;-72
2021/12/17 13:53:53;;;;;;;1.35;1.25;;;17.30;67.50;;;;;;5051595;28;20056;-72
2021/12/17 13:56:21;;;;;;;1.90;1.40;;;17.40;67.50;;;;;;5051501;28;20055;-72
2021/12/17 13:58:48;;;;;;;1.70;1.25;;;17.30;67.40;;;;;;5063857;28;20140;-72
2021/12/17 14:01:21;;;;;;;2.38;1.20;;;17.40;67.40;;;;;;5072684;28;20051;-72
2021/12/17 14:03:47;;;;;;;2.90;1.05;;;16.60;67.00;;;;;;5071338;28;20131;-72
2021/12/17 14:06:21;;;;;;;1.95;1.25;;;16.50;67.00;;;;;;5057156;28;20124;-72
2021/12/17 14:08:48;;;;;;;1.92;1.20;;;16.80;67.00;;;;;;5052889;28;20053;-72
2021/12/17 14:11:27;;;;;;;1.60;1.23;;;17.40;67.30;;;;;;5052301;28;20044;-73
2021/12/17 14:13:54;;;;;;;1.50;1.27;;;17.40;67.50;;;;;;5051625;28;20059;-74
2021/12/17 14:16:30;;;;;;;1.42;1.05;;;17.30;61.90;;;;;;5050955;28;20132;-72
2021/12/17 14:18:57;;;;;;;1.75;1.15;;;17.40;67.40;;;;;;5051746;28;20052;-74
2021/12/17 14:21:28;;;;;;;1.63;1.20;;;16.30;66.90;;;;;;5071331;28;20068;-74
2021/12/17 14:23:54;;;;;;;1.52;1.20;;;17.40;67.20;;;;;;5070878;28;20055;-74
2021/12/17 14:26:28;;;;;;;1.58;1.20;;;17.30;67.40;;;;;;5071721;28;20124;-74
2021/12/17 14:28:55;;;;;;;1.20;1.00;;;17.30;67.10;;;;;;5070974;28;20067;-72
2021/12/17 14:31:24;;;;;;;1.52;1.20;;;17.30;67.30;;;;;;5071160;28;20095;-74
2021/12/17 14:33:51;;;;;;;2.47;1.00;;;17.10;67.30;;;;;;5070899;28;20068;-74
2021/12/17 14:36:18;;;;;;;1.35;1.00;;;17.30;67.40;;;;;;5069003;28;20044;-74
2021/12/17 14:38:48;;;;;;;1.88;1.20;;;17.70;67.50;;;;;;5071058;28;20647;-72
2021/12/17 14:41:17;;;;;;;1.35;1.00;;;16.60;67.00;;;;;;5071046;28;20559;-72
2021/12/17 14:43:50;;;;;;;2.63;1.23;;;17.40;67.10;;;;;;5070737;28;20057;-72
2021/12/17 14:46:22;;;;;;;1.77;1.30;;;17.30;67.20;;;;;;5070569;28;20059;-72
2021/12/17 14:48:59;;;;;;;2.03;1.20;;;17.40;67.40;;;;;;5070877;28;20427;-72
2021/12/17 15:02:44;;;;;;;1.73;1.50;;;17.20;67.10;;;;;;5030726;28;20402;-72
2021/12/17 15:05:11;;;;;;;1.60;1.30;;;17.70;67.50;;;;;;5070282;28;20319;-71
2021/12/17 15:07:38;;;;;;;2.58;1.50;;;16.70;67.20;;;;;;5058381;28;20147;-70
2021/12/17 15:10:07;;;;;;;2.08;1.40;;;17.00;67.00;;;;;;5059307;28;20132;-70
2021/12/17 15:12:39;;;;;;;1.67;1.40;;;16.80;67.10;;;;;;5056769;28;20457;-70
2021/12/17 15:15:16;;;;;;;1.73;1.60;;;17.50;67.60;;;;;;5061322;28;20041;-70
2021/12/17 15:17:43;;;;;;;1.98;1.40;;;16.50;66.70;;;;;;5062980;28;20041;-70
2021/12/17 15:20:11;;;;;;;1.65;1.35;;;17.20;61.90;;;;;;5063814;28;20140;-70
2021/12/17 15:22:38;;;;;;;2.65;1.40;;;17.20;67.30;;;;;;5060751;28;20060;-70
2021/12/17 15:25:06;;;;;;;1.75;1.50;;;17.30;67.40;;;;;;5060887;28;20052;-70
2021/12/17 15:27:35;;;;;;;1.83;1.27;;;17.30;67.10;;;;;;5067672;28;20048;-70
2021/12/17 15:30:01;;;;;;;2.03;1.40;;;17.30;67.10;;;;;;5064839;28;20083;-70
2021/12/17 15:32:29;;;;;;;1.98;1.40;;;17.20;67.30;;;;;;5063816;28;20502;-70
2021/12/17 15:34:56;;;;;;;2.00;1.42;;;17.20;67.30;;;;;;5063010;28;20048;-70
2021/12/17 15:37:23;;;;;;;3.17;1.30;;;;;;;;;;5064731;28;20083;-71
2021/12/17 15:39:50;;;;;;;1.70;1.40;;;17.30;67.90;;;;;;5072739;28;20040;-71
2021/12/17 15:42:17;;;;;;;1.88;1.40;;;17.10;67.20;;;;;;5063501;28;20098;-70
2021/12/17 15:44:44;;;;;;;2.28;1.70;;;17.10;67.30;;;;;;5059210;28;20131;-70
2021/12/17 15:47:11;;;;;;;1.60;1.30;;;17.40;67.20;;;;;;5063717;28;20390;-70